Time;durP1;ratioP1;P1;durP2;ratioP2;P2;SDS_P1;SDS_P2;PMS_P1;PMS_P2;Temp;Humidity;BMP_temperature;BMP_pressure;BME280_temperature;BME280_humidity;BME280_pressure;Samples;Min_cycle;Max_cycle;Signal;HPM_P1;HPM_P2
2021/06/20 00:00:39;;;;;;;12.27;11.27;;;22.30;99.90;;;;;;6150907;23;20394;-73
2021/06/20 00:03:06;;;;;;;14.20;12.00;;;22.30;99.90;;;;;;6137295;23;20426;-73
2021/06/20 00:05:53;;;;;;;13.43;12.33;;;22.10;93.70;;;;;;6137389;23;20387;-73
2021/06/20 00:08:20;;;;;;;13.00;11.80;;;22.10;99.90;;;;;;6137241;23;20375;-73
2021/06/20 00:10:49;;;;;;;13.80;12.50;;;22.10;99.90;;;;;;6137503;23;20469;-73
2021/06/20 00:13:17;;;;;;;12.67;11.60;;;21.90;99.90;;;;;;6127447;23;20399;-73
2021/06/20 00:15:45;;;;;;;14.10;12.80;;;21.90;99.90;;;;;;6137207;23;20386;-72
2021/06/20 00:18:18;;;;;;;14.70;13.20;;;21.90;99.90;;;;;;6136383;23;20390;-73
2021/06/20 00:20:47;;;;;;;12.77;11.60;;;22.00;99.90;;;;;;6137083;23;20382;-73
2021/06/20 00:23:13;;;;;;;13.47;12.37;;;22.00;99.90;;;;;;6125818;23;20430;-72
2021/06/20 00:25:40;;;;;;;13.23;11.93;;;22.00;99.90;;;;;;6136885;23;20414;-73
2021/06/20 00:28:06;;;;;;;14.10;12.70;;;21.90;99.90;;;;;;6136967;23;20383;-73
2021/06/20 00:30:34;;;;;;;13.10;11.90;;;22.00;99.90;;;;;;6126288;23;20421;-72
2021/06/20 00:33:00;;;;;;;13.30;12.07;;;22.10;99.90;;;;;;6137171;23;20848;-72
2021/06/20 00:35:26;;;;;;;12.83;11.70;;;22.10;99.90;;;;;;6137172;23;20841;-72
2021/06/20 00:37:52;;;;;;;13.87;12.50;;;22.10;99.90;;;;;;6136870;23;20401;-72
2021/06/20 00:40:20;;;;;;;16.00;13.60;;;22.10;99.90;;;;;;6136874;23;20472;-72
2021/06/20 00:42:47;;;;;;;14.80;13.30;;;22.00;99.90;;;;;;6150337;23;20436;-72
2021/06/20 00:45:18;;;;;;;13.43;12.23;;;22.00;99.90;;;;;;6137369;23;20448;-72
2021/06/20 00:47:44;;;;;;;14.33;13.03;;;21.90;99.90;;;;;;6136596;23;20466;-72
2021/06/20 00:50:12;;;;;;;13.20;11.90;;;21.80;99.90;;;;;;6136819;23;20391;-72
2021/06/20 00:52:39;;;;;;;14.60;13.20;;;22.00;99.90;;;;;;6136986;23;20826;-72
2021/06/20 00:55:05;;;;;;;13.33;12.03;;;21.90;99.90;;;;;;6135759;23;20474;-72
2021/06/20 00:57:32;;;;;;;13.33;12.07;;;21.90;99.90;;;;;;6136688;23;20826;-72
2021/06/20 00:59:59;;;;;;;12.53;11.33;;;21.80;99.90;;;;;;6126086;23;20433;-70
2021/06/20 01:02:24;;;;;;;13.83;12.63;;;21.90;99.90;;;;;;6137120;23;20414;-71
2021/06/20 01:04:50;;;;;;;14.53;13.23;;;21.80;99.90;;;;;;6150251;23;20431;-71
2021/06/20 01:07:18;;;;;;;14.10;12.20;;;21.80;99.90;;;;;;6136532;23;20173;-71
2021/06/20 01:09:44;;;;;;;14.40;13.07;;;21.80;99.90;;;;;;6136500;23;20386;-71
2021/06/20 01:12:11;;;;;;;17.67;13.30;;;21.80;99.90;;;;;;6136756;23;20417;-72
2021/06/20 01:14:37;;;;;;;13.97;12.50;;;21.90;99.90;;;;;;6127224;23;20403;-73
2021/06/20 01:17:04;;;;;;;14.07;12.67;;;21.70;99.90;;;;;;6136593;23;20701;-72
2021/06/20 01:19:30;;;;;;;14.10;12.70;;;21.60;99.90;;;;;;6136589;23;20238;-72
2021/06/20 01:21:57;;;;;;;12.80;11.60;;;21.60;99.90;;;;;;6136710;23;20411;-72
2021/06/20 01:24:23;;;;;;;14.80;13.40;;;21.70;99.90;;;;;;6149895;23;20461;-72
2021/06/20 01:26:48;;;;;;;16.17;14.67;;;21.60;99.90;;;;;;6136568;23;20383;-72
2021/06/20 01:29:16;;;;;;;13.73;12.33;;;21.70;99.90;;;;;;6136486;23;20637;-72
2021/06/20 01:31:49;;;;;;;13.50;12.27;;;21.70;99.90;;;;;;6127056;23;20159;-72
2021/06/20 01:34:16;;;;;;;14.03;12.63;;;21.70;99.90;;;;;;6135505;23;20371;-72
2021/06/20 01:36:42;;;;;;;14.43;13.13;;;21.90;99.90;;;;;;6136498;23;20395;-72
2021/06/20 01:39:08;;;;;;;13.93;12.53;;;22.10;99.90;;;;;;6136444;23;20405;-72
2021/06/20 01:41:35;;;;;;;13.17;11.87;;;22.10;99.90;;;;;;6136593;23;20402;-72
2021/06/20 01:44:00;;;;;;;16.23;12.17;;;21.80;99.90;;;;;;6136414;23;20471;-72
2021/06/20 01:46:26;;;;;;;14.17;12.97;;;21.70;99.90;;;;;;6136579;23;20387;-72
2021/06/20 01:48:52;;;;;;;14.67;13.30;;;21.60;99.90;;;;;;6149756;23;20154;-72
2021/06/20 01:51:17;;;;;;;15.13;13.50;;;21.70;99.90;;;;;;6136812;23;20159;-70
2021/06/20 01:53:43;;;;;;;15.00;13.40;;;21.70;99.90;;;;;;6136993;23;20154;-70
2021/06/20 01:56:09;;;;;;;14.20;12.67;;;21.70;99.90;;;;;;6137727;23;20182;-72
2021/06/20 01:58:34;;;;;;;14.37;12.97;;;21.60;99.90;;;;;;6137426;23;20154;-72
2021/06/20 02:01:01;;;;;;;13.87;12.60;;;21.50;99.90;;;;;;6137793;23;20163;-72
2021/06/20 02:03:28;;;;;;;14.03;12.83;;;21.30;99.90;;;;;;6137125;23;20182;-70
2021/06/20 02:05:58;;;;;;;15.50;12.43;;;21.20;99.90;;;;;;6137918;23;20390;-72
2021/06/20 02:08:25;;;;;;;14.43;13.03;;;21.40;99.90;;;;;;6137280;23;20389;-70
2021/06/20 02:10:52;;;;;;;14.47;13.20;;;21.40;99.90;;;;;;6136896;23;20699;-70
2021/06/20 02:13:23;;;;;;;13.73;12.47;;;21.30;99.90;;;;;;6150173;23;20403;-69
2021/06/20 02:15:52;;;;;;;14.80;13.40;;;21.30;99.90;;;;;;6150117;23;20486;-71
2021/06/20 02:18:18;;;;;;;14.60;13.10;;;21.20;99.90;;;;;;6125406;23;20403;-73
2021/06/20 02:20:43;;;;;;;15.17;13.70;;;21.20;99.90;;;;;;6151155;23;20476;-73
2021/06/20 02:23:09;;;;;;;14.13;12.93;;;21.30;99.90;;;;;;6138281;23;20179;-73
2021/06/20 02:25:36;;;;;;;13.77;12.47;;;21.20;99.90;;;;;;6151628;23;20421;-75
2021/06/20 02:28:02;;;;;;;15.33;13.83;;;21.30;99.90;;;;;;6151829;23;20209;-74
2021/06/20 02:30:28;;;;;;;14.80;13.40;;;21.30;99.90;;;;;;6138053;23;20990;-74
2021/06/20 02:32:54;;;;;;;13.87;12.67;;;21.50;99.90;;;;;;6151948;23;20411;-74
2021/06/20 02:35:21;;;;;;;13.13;11.77;;;21.40;99.90;;;;;;6129000;23;20395;-74
2021/06/20 02:37:48;;;;;;;14.57;13.10;;;21.30;99.90;;;;;;6128716;23;20753;-72
2021/06/20 02:40:14;;;;;;;14.70;13.40;;;21.30;99.90;;;;;;6138046;23;20382;-72
2021/06/20 02:42:40;;;;;;;14.53;13.03;;;21.30;99.90;;;;;;6138296;23;20382;-72
2021/06/20 02:45:10;;;;;;;13.93;12.40;;;21.20;99.90;;;;;;6151753;23;20449;-72
2021/06/20 02:47:36;;;;;;;15.43;14.10;;;21.30;99.90;;;;;;6128050;23;20405;-72
2021/06/20 02:50:03;;;;;;;14.07;12.87;;;21.40;99.90;;;;;;6137903;23;20465;-72
2021/06/20 02:52:29;;;;;;;15.27;13.83;;;21.40;99.90;;;;;;6151656;23;20416;-72
2021/06/20 02:54:56;;;;;;;15.50;14.10;;;21.40;99.90;;;;;;6137916;23;20531;-72
2021/06/20 02:57:26;;;;;;;15.10;13.70;;;21.40;99.90;;;;;;6151431;23;20524;-72
2021/06/20 02:59:52;;;;;;;16.17;14.67;;;21.30;99.90;;;;;;6137718;23;20399;-72
2021/06/20 03:02:17;;;;;;;15.63;13.20;;;21.40;99.90;;;;;;6137959;23;20398;-72
2021/06/20 03:04:44;;;;;;;15.07;13.53;;;21.30;99.90;;;;;;6137823;23;20430;-72
2021/06/20 03:07:10;;;;;;;13.90;12.60;;;21.30;99.90;;;;;;6137834;23;20159;-72
2021/06/20 03:09:37;;;;;;;16.33;14.67;;;21.60;99.90;;;;;;6151300;23;20473;-72
2021/06/20 03:12:07;;;;;;;14.77;13.50;;;21.70;99.90;;;;;;6137919;23;20450;-72
2021/06/20 03:14:34;;;;;;;14.23;12.83;;;21.60;99.90;;;;;;6137942;23;20375;-72
2021/06/20 03:17:04;;;;;;;14.93;13.43;;;21.60;99.90;;;;;;6137579;23;20477;-72
2021/06/20 03:19:31;;;;;;;16.73;15.00;;;21.40;99.90;;;;;;6151386;23;20394;-73
2021/06/20 03:22:00;;;;;;;15.33;13.73;;;21.40;99.90;;;;;;6137718;23;20461;-73
2021/06/20 03:24:34;;;;;;;14.93;13.63;;;21.40;99.90;;;;;;6137607;23;20598;-74
2021/06/20 03:27:00;;;;;;;16.53;14.97;;;21.50;99.90;;;;;;6151234;23;20405;-73
2021/06/20 03:29:29;;;;;;;15.53;13.67;;;21.50;99.90;;;;;;6137666;23;20402;-73
2021/06/20 03:31:56;;;;;;;15.37;13.77;;;21.50;99.90;;;;;;6137729;23;20397;-72
2021/06/20 03:34:22;;;;;;;15.93;14.33;;;21.50;99.90;;;;;;6151245;23;20462;-72
2021/06/20 03:36:47;;;;;;;16.53;15.00;;;21.50;99.90;;;;;;6137703;23;20693;-72
2021/06/20 03:39:14;;;;;;;16.13;14.43;;;21.50;99.90;;;;;;6137654;23;20387;-71
2021/06/20 03:41:40;;;;;;;15.17;13.73;;;21.40;99.90;;;;;;6136655;23;20463;-71
2021/06/20 03:44:06;;;;;;;16.70;15.20;;;21.40;99.90;;;;;;6137613;23;20446;-71
2021/06/20 03:46:35;;;;;;;15.43;14.03;;;21.30;99.90;;;;;;6137741;23;20696;-71
2021/06/20 03:49:02;;;;;;;16.73;15.10;;;21.40;99.90;;;;;;6137533;23;20491;-71
2021/06/20 03:51:28;;;;;;;17.00;14.33;;;21.40;99.90;;;;;;6137663;23;20391;-71
2021/06/20 03:53:54;;;;;;;16.43;14.83;;;21.40;99.90;;;;;;6137922;23;20394;-71
2021/06/20 03:56:19;;;;;;;16.53;14.87;;;21.50;99.90;;;;;;6137605;23;20466;-71
2021/06/20 03:58:45;;;;;;;17.87;16.27;;;21.60;99.90;;;;;;6150852;23;20167;-72
2021/06/20 04:01:11;;;;;;;18.00;16.40;;;21.60;99.90;;;;;;6136324;23;20155;-71
2021/06/20 04:03:36;;;;;;;16.80;15.30;;;21.50;99.90;;;;;;6137523;23;20183;-71
2021/06/20 04:06:02;;;;;;;16.77;15.20;;;21.50;99.90;;;;;;6137532;23;20183;-71
2021/06/20 04:08:28;;;;;;;16.80;15.10;;;21.60;99.90;;;;;;6137193;23;20162;-72
2021/06/20 04:10:54;;;;;;;16.90;15.30;;;21.60;99.90;;;;;;6137834;23;20151;-72
2021/06/20 04:13:20;;;;;;;17.60;15.73;;;21.80;99.90;;;;;;6151178;23;20395;-72
2021/06/20 04:15:45;;;;;;;16.23;14.73;;;21.90;99.90;;;;;;6137455;23;20159;-72
2021/06/20 04:18:11;;;;;;;15.17;13.70;;;21.90;99.90;;;;;;6137137;23;20163;-72
2021/06/20 04:20:36;;;;;;;16.20;14.50;;;21.90;99.90;;;;;;6137569;23;20468;-72
2021/06/20 04:23:02;;;;;;;16.47;14.90;;;21.90;99.90;;;;;;6150662;23;20217;-72
2021/06/20 04:25:28;;;;;;;15.63;14.23;;;21.80;99.90;;;;;;6137101;23;20202;-72
2021/06/20 04:27:53;;;;;;;16.53;14.97;;;21.90;99.90;;;;;;6137133;23;20162;-72
2021/06/20 04:30:21;;;;;;;15.07;13.77;;;22.00;99.90;;;;;;6137206;23;20500;-72
2021/06/20 04:32:48;;;;;;;18.30;16.70;;;21.90;99.90;;;;;;6127427;23;20237;-72
2021/06/20 04:35:14;;;;;;;17.53;16.03;;;21.90;99.90;;;;;;6127655;23;20415;-72
2021/06/20 04:37:41;;;;;;;17.10;15.43;;;21.80;99.90;;;;;;6127434;23;20402;-72
2021/06/20 04:40:09;;;;;;;15.67;14.13;;;21.80;99.90;;;;;;6137323;23;20413;-72
2021/06/20 04:42:37;;;;;;;16.33;14.70;;;21.90;99.90;;;;;;6127693;23;20409;-72
2021/06/20 04:45:07;;;;;;;13.97;12.77;;;21.60;99.90;;;;;;6136890;23;20418;-72
2021/06/20 04:47:33;;;;;;;14.03;12.73;;;21.60;99.90;;;;;;6137378;23;20697;-72
2021/06/20 04:49:59;;;;;;;17.17;13.57;;;21.50;99.90;;;;;;6125968;23;20394;-72
2021/06/20 04:52:25;;;;;;;12.27;11.07;;;21.50;99.90;;;;;;6136938;23;20397;-72
2021/06/20 04:54:52;;;;;;;13.53;11.43;;;21.50;99.90;;;;;;6137020;23;20475;-72
2021/06/20 04:57:26;;;;;;;11.83;10.80;;;21.30;99.90;;;;;;6137461;23;20397;-72
2021/06/20 04:59:54;;;;;;;12.30;11.10;;;21.40;99.90;;;;;;6136706;23;20414;-73
2021/06/20 05:02:20;;;;;;;10.63;9.53;;;21.40;99.90;;;;;;6137155;23;20391;-73
2021/06/20 05:04:46;;;;;;;10.17;9.00;;;21.20;99.90;;;;;;6136818;23;20909;-73
2021/06/20 05:07:12;;;;;;;8.13;7.43;;;21.10;99.90;;;;;;6150237;23;20407;-72
2021/06/20 05:09:39;;;;;;;12.07;6.30;;;21.00;99.90;;;;;;6150608;23;20163;-72
2021/06/20 05:12:07;;;;;;;7.83;7.03;;;20.80;99.90;;;;;;6136871;23;20410;-72
2021/06/20 05:14:34;;;;;;;8.83;6.70;;;20.80;99.90;;;;;;6135821;23;20391;-73
2021/06/20 05:17:00;;;;;;;8.17;7.30;;;20.90;99.90;;;;;;6136683;23;20422;-72
2021/06/20 05:19:25;;;;;;;9.80;6.03;;;20.80;99.90;;;;;;6136537;23;20391;-72
2021/06/20 05:21:51;;;;;;;8.27;5.40;;;20.80;99.90;;;;;;6136675;23;20433;-72
2021/06/20 05:24:17;;;;;;;8.10;5.90;;;20.70;99.90;;;;;;6125493;23;20449;-73
2021/06/20 05:26:43;;;;;;;6.07;4.50;;;20.60;99.90;;;;;;6136772;23;20391;-72
2021/06/20 05:29:09;;;;;;;4.97;3.97;;;20.60;99.90;;;;;;6136564;23;20165;-72
2021/06/20 05:31:34;;;;;;;5.57;4.20;;;20.60;99.90;;;;;;6137081;23;20230;-73
2021/06/20 05:34:00;;;;;;;5.50;3.80;;;20.60;99.90;;;;;;6125757;23;20163;-72
2021/06/20 05:36:26;;;;;;;4.20;3.30;;;20.50;99.90;;;;;;6150201;23;20174;-72
2021/06/20 05:38:51;;;;;;;2.90;2.57;;;20.50;99.90;;;;;;6150170;23;20174;-73
2021/06/20 05:41:17;;;;;;;3.63;3.03;;;20.60;99.90;;;;;;6137028;23;20170;-72
2021/06/20 05:43:42;;;;;;;4.03;3.50;;;20.60;99.90;;;;;;6136535;23;20276;-73
2021/06/20 05:46:08;;;;;;;5.70;4.23;;;20.50;99.90;;;;;;6150239;23;20253;-73
2021/06/20 05:48:34;;;;;;;7.07;5.43;;;20.40;99.90;;;;;;6136560;23;20155;-72
2021/06/20 05:51:00;;;;;;;8.30;5.27;;;20.30;99.90;;;;;;6126696;23;20513;-73
2021/06/20 05:53:25;;;;;;;4.97;3.97;;;20.20;99.90;;;;;;6150123;23;20402;-74
2021/06/20 05:55:51;;;;;;;4.43;3.40;;;20.10;99.90;;;;;;6138886;23;20151;-73
2021/06/20 05:58:17;;;;;;;5.60;4.00;;;20.10;99.90;;;;;;6138551;23;20461;-74
2021/06/20 06:00:42;;;;;;;7.03;4.27;;;20.00;99.90;;;;;;6103313;23;20473;-72
2021/06/20 06:03:08;;;;;;;7.67;3.93;;;20.00;99.90;;;;;;6138357;23;20158;-72
2021/06/20 06:05:34;;;;;;;8.83;4.20;;;20.00;99.90;;;;;;6138301;23;20230;-72
2021/06/20 06:08:00;;;;;;;3.57;3.17;;;19.90;99.90;;;;;;6138330;23;20182;-72
2021/06/20 06:10:31;;;;;;;7.20;3.40;;;20.00;99.90;;;;;;6127423;23;20169;-72
2021/06/20 06:12:57;;;;;;;3.90;2.80;;;20.00;99.90;;;;;;6138463;23;20371;-72
2021/06/20 06:15:24;;;;;;;6.90;3.27;;;20.00;99.90;;;;;;6138473;23;20405;-73
2021/06/20 06:17:50;;;;;;;5.07;2.53;;;20.20;99.90;;;;;;6138106;23;20386;-72
2021/06/20 06:20:16;;;;;;;5.73;3.80;;;20.60;99.90;;;;;;6151510;23;20402;-72
2021/06/20 06:22:42;;;;;;;6.40;4.27;;;20.60;99.90;;;;;;6138354;23;20396;-72
2021/06/20 06:25:08;;;;;;;6.47;3.33;;;20.60;99.90;;;;;;6138068;23;20532;-72
2021/06/20 06:27:34;;;;;;;5.73;3.53;;;20.70;99.90;;;;;;6138364;23;20185;-72
2021/06/20 06:29:59;;;;;;;9.90;4.33;;;20.70;99.90;;;;;;6127214;23;20399;-72
2021/06/20 06:32:25;;;;;;;4.57;3.20;;;20.70;99.90;;;;;;6127290;23;20158;-72
2021/06/20 06:34:51;;;;;;;6.20;3.77;;;20.80;99.90;;;;;;6151824;23;20253;-72
2021/06/20 06:37:17;;;;;;;5.33;3.23;;;21.00;99.90;;;;;;6151672;23;20407;-70
2021/06/20 06:39:42;;;;;;;4.97;3.60;;;21.00;99.90;;;;;;6126917;23;20171;-71
2021/06/20 06:42:08;;;;;;;7.23;3.57;;;21.10;99.90;;;;;;6138171;23;20230;-71
2021/06/20 06:44:34;;;;;;;8.20;4.10;;;21.20;99.90;;;;;;6138030;23;20520;-71
2021/06/20 06:47:00;;;;;;;6.53;4.07;;;21.30;99.90;;;;;;6128428;23;20444;-71
2021/06/20 06:49:26;;;;;;;4.40;4.00;;;21.50;99.90;;;;;;6137762;23;20833;-72
2021/06/20 06:51:52;;;;;;;4.77;3.90;;;21.70;99.90;;;;;;6151515;23;20245;-72
2021/06/20 06:54:18;;;;;;;9.30;4.23;;;22.10;99.90;;;;;;6151638;23;20402;-71
2021/06/20 06:56:44;;;;;;;10.23;4.83;;;22.30;99.90;;;;;;6138010;23;20425;-73
2021/06/20 06:59:10;;;;;;;5.90;3.97;;;22.10;99.90;;;;;;6151402;23;20842;-73
2021/06/20 07:01:36;;;;;;;7.80;4.33;;;22.30;99.90;;;;;;6151392;23;20497;-74
2021/06/20 07:04:02;;;;;;;8.60;3.80;;;22.50;99.90;;;;;;6151434;23;20183;-73
2021/06/20 07:06:28;;;;;;;6.00;4.00;;;22.60;99.90;;;;;;6137649;23;20157;-73
2021/06/20 07:08:53;;;;;;;6.10;4.13;;;22.90;99.90;;;;;;6137687;23;20154;-74
2021/06/20 07:11:19;;;;;;;8.10;4.70;;;23.20;99.90;;;;;;6128406;23;20474;-73
2021/06/20 07:13:45;;;;;;;6.03;3.93;;;23.60;99.90;;;;;;6128441;23;20226;-73
2021/06/20 07:16:11;;;;;;;5.50;3.90;;;24.00;99.90;;;;;;6128478;23;20402;-75
2021/06/20 07:18:36;;;;;;;9.10;4.17;;;24.40;99.90;;;;;;6151377;23;20241;-75
2021/06/20 07:21:02;;;;;;;7.07;4.30;;;25.30;1.00;;;;;;6137848;23;20159;-74
2021/06/20 07:23:28;;;;;;;6.33;4.30;;;26.30;1.00;;;;;;6137982;23;20182;-75
2021/06/20 07:25:53;;;;;;;7.83;4.67;;;26.30;1.00;;;;;;6151228;23;20226;-74
2021/06/20 07:28:19;;;;;;;8.43;4.70;;;26.60;1.00;;;;;;6137622;23;20151;-74
2021/06/20 07:30:48;;;;;;;8.70;3.60;;;27.10;1.00;;;;;;6137797;23;20155;-74
2021/06/20 07:33:19;;;;;;;6.60;4.70;;;27.50;99.90;;;;;;6128265;23;20170;-74
2021/06/20 07:35:48;;;;;;;8.10;5.00;;;27.60;99.90;;;;;;6151481;23;20442;-71
2021/06/20 07:38:14;;;;;;;8.00;4.13;;;26.90;1.00;;;;;;6127565;23;20399;-71
2021/06/20 07:40:40;;;;;;;6.27;4.27;;;26.60;80.80;;;;;;6151309;23;20402;-74
2021/06/20 07:43:05;;;;;;;8.83;4.70;;;26.00;99.90;;;;;;6128322;23;20436;-74
2021/06/20 07:45:32;;;;;;;8.53;3.83;;;25.50;1.00;;;;;;6137565;23;20424;-74
2021/06/20 07:47:59;;;;;;;6.50;4.73;;;24.90;1.00;;;;;;6151167;23;20250;-75
2021/06/20 07:50:24;;;;;;;8.87;5.03;;;24.70;35.70;;;;;;6151015;23;20410;-75
2021/06/20 07:52:50;;;;;;;7.80;4.47;;;25.00;90.40;;;;;;6137465;23;20481;-75
2021/06/20 07:55:15;;;;;;;6.30;3.67;;;24.80;8.70;;;;;;6151709;23;20163;-73
2021/06/20 07:57:41;;;;;;;7.17;4.10;;;25.30;1.00;;;;;;6138192;23;20159;-74
2021/06/20 08:00:08;;;;;;;5.90;3.77;;;25.20;1.00;;;;;;6151267;23;20559;-74
2021/06/20 08:02:35;;;;;;;10.83;3.90;;;25.00;1.00;;;;;;6137426;23;20169;-74
2021/06/20 08:05:00;;;;;;;8.57;4.57;;;25.10;1.00;;;;;;6137514;23;20943;-74
2021/06/20 08:07:26;;;;;;;6.83;5.13;;;25.00;1.00;;;;;;6137432;23;20395;-72
2021/06/20 08:09:51;;;;;;;4.30;3.90;;;25.30;1.00;;;;;;6137763;23;20573;-73
2021/06/20 08:12:17;;;;;;;6.37;4.10;;;25.40;1.00;;;;;;6150997;23;20155;-73
2021/06/20 08:14:43;;;;;;;8.13;5.57;;;25.60;1.00;;;;;;6137459;23;20159;-73
2021/06/20 08:17:10;;;;;;;5.77;4.00;;;25.70;1.00;;;;;;6136922;23;20163;-73
2021/06/20 08:19:35;;;;;;;5.47;4.37;;;26.00;99.90;;;;;;6137180;23;20186;-73
2021/06/20 08:22:01;;;;;;;7.27;4.17;;;26.30;99.90;;;;;;6151039;23;20409;-73
2021/06/20 08:24:27;;;;;;;7.83;5.30;;;26.40;99.90;;;;;;6136998;23;20194;-73
2021/06/20 08:26:52;;;;;;;7.20;4.20;;;26.10;1.00;;;;;;6150522;23;20196;-73
2021/06/20 08:29:18;;;;;;;7.27;4.40;;;26.00;99.90;;;;;;6150656;23;20162;-73
2021/06/20 08:31:43;;;;;;;6.60;4.90;;;25.90;99.90;;;;;;6137380;23;20148;-73
2021/06/20 08:34:09;;;;;;;5.90;4.60;;;26.00;99.90;;;;;;6137373;23;20213;-75
2021/06/20 08:36:36;;;;;;;6.00;4.10;;;26.30;99.90;;;;;;6137133;23;20169;-74
2021/06/20 08:39:05;;;;;;;8.50;4.70;;;26.10;99.90;;;;;;6136941;23;20159;-75
2021/06/20 08:41:32;;;;;;;6.40;4.50;;;26.40;1.00;;;;;;6136952;23;20398;-74
2021/06/20 08:43:58;;;;;;;6.10;4.50;;;26.60;1.00;;;;;;6137073;23;20870;-74
2021/06/20 08:46:24;;;;;;;10.90;4.73;;;26.90;1.00;;;;;;6136904;23;20404;-74
2021/06/20 08:48:51;;;;;;;5.63;4.50;;;27.10;1.00;;;;;;6136708;23;20147;-73
2021/06/20 08:51:17;;;;;;;4.10;3.70;;;26.90;1.00;;;;;;6150591;23;20398;-73
2021/06/20 08:53:43;;;;;;;8.77;5.23;;;26.40;99.90;;;;;;6136486;23;20464;-67
2021/06/20 08:56:08;;;;;;;5.53;4.17;;;25.70;1.00;;;;;;6136494;23;20458;-64
2021/06/20 08:58:34;;;;;;;9.27;4.13;;;25.50;99.90;;;;;;6136579;23;20177;-64
2021/06/20 09:01:05;;;;;;;6.43;4.23;;;25.30;99.90;;;;;;6136940;23;20462;-64
2021/06/20 09:03:41;;;;;;;6.87;4.90;;;25.70;99.90;;;;;;6126944;23;20457;-64
2021/06/20 09:06:21;;;;;;;5.83;5.13;;;25.80;99.90;;;;;;6137056;23;20383;-65
2021/06/20 09:08:55;;;;;;;5.07;4.67;;;26.20;55.60;;;;;;6136704;23;20425;-68
2021/06/20 09:11:39;;;;;;;7.47;5.27;;;26.30;99.90;;;;;;6127536;23;20375;-68
2021/06/20 09:14:13;;;;;;;5.77;5.20;;;25.90;1.00;;;;;;6127447;23;20462;-69
2021/06/20 09:16:53;;;;;;;6.90;5.37;;;25.70;1.00;;;;;;6150219;23;20398;-68
2021/06/20 09:19:32;;;;;;;5.93;5.20;;;25.60;99.90;;;;;;6136595;23;20857;-68
2021/06/20 09:22:01;;;;;;;7.77;5.70;;;25.40;99.90;;;;;;6126629;23;20481;-68
2021/06/20 09:24:27;;;;;;;7.53;6.00;;;25.10;99.90;;;;;;6149719;23;20442;-70
2021/06/20 09:26:55;;;;;;;6.00;5.30;;;25.10;99.90;;;;;;6125087;23;20379;-69
2021/06/20 09:29:38;;;;;;;9.40;7.17;;;25.20;99.90;;;;;;6135948;23;20525;-72
2021/06/20 09:32:09;;;;;;;6.07;5.47;;;25.40;99.90;;;;;;6135831;23;20688;-70
2021/06/20 09:34:47;;;;;;;6.90;5.70;;;25.70;21.00;;;;;;6126491;23;20375;-69
2021/06/20 09:37:13;;;;;;;6.90;6.23;;;25.90;1.00;;;;;;6126936;23;20401;-69
2021/06/20 09:39:39;;;;;;;7.10;6.30;;;25.70;1.00;;;;;;6125353;23;20398;-70
2021/06/20 09:42:14;;;;;;;7.10;6.00;;;25.80;1.00;;;;;;6150043;23;20465;-68
2021/06/20 09:44:49;;;;;;;6.23;5.60;;;26.30;1.00;;;;;;6126832;23;20194;-69
2021/06/20 09:47:19;;;;;;;10.80;6.00;;;26.20;99.90;;;;;;6136471;23;20401;-68
2021/06/20 09:49:48;;;;;;;9.03;6.33;;;26.60;1.00;;;;;;6136682;23;20401;-68
2021/06/20 09:52:15;;;;;;;8.43;5.60;;;27.30;1.00;;;;;;6136809;23;20426;-68
2021/06/20 09:54:52;;;;;;;7.73;6.40;;;27.70;99.90;;;;;;6125763;23;20409;-67
2021/06/20 09:57:17;;;;;;;6.70;5.60;;;27.70;99.90;;;;;;6149278;23;20469;-68
2021/06/20 10:00:01;;;;;;;6.90;6.27;;;28.20;99.90;;;;;;6126575;23;20403;-68
2021/06/20 10:02:33;;;;;;;9.13;6.17;;;28.00;99.90;;;;;;6126353;23;20645;-67
2021/06/20 10:04:59;;;;;;;8.80;6.20;;;28.00;99.90;;;;;;6126778;23;20489;-67
2021/06/20 10:07:29;;;;;;;6.77;6.03;;;28.30;1.00;;;;;;6136308;23;20394;-68
2021/06/20 10:09:57;;;;;;;8.83;6.90;;;28.20;89.60;;;;;;6136356;23;20158;-67
2021/06/20 10:12:23;;;;;;;8.10;6.00;;;28.20;34.50;;;;;;6136586;23;20390;-68
2021/06/20 10:14:51;;;;;;;6.70;6.10;;;28.10;99.90;;;;;;6136263;23;20395;-68
2021/06/20 10:17:40;;;;;;;6.53;5.87;;;27.90;99.90;;;;;;6126624;23;20995;-68
2021/06/20 10:20:08;;;;;;;8.60;6.13;;;28.10;1.00;;;;;;6136203;23;20398;-68
2021/06/20 10:22:39;;;;;;;7.00;6.30;;;27.90;1.00;;;;;;6136439;23;20461;-68
2021/06/20 10:25:08;;;;;;;6.70;6.00;;;27.80;1.00;;;;;;6149635;23;20449;-68
2021/06/20 10:27:48;;;;;;;7.60;6.00;;;27.70;99.90;;;;;;6125226;23;20489;-68
2021/06/20 10:30:22;;;;;;;6.90;6.27;;;27.70;1.00;;;;;;6136322;23;20381;-68
2021/06/20 10:32:50;;;;;;;6.80;6.20;;;27.80;99.90;;;;;;6136503;23;20381;-69
2021/06/20 10:35:19;;;;;;;7.47;6.73;;;28.00;99.90;;;;;;6149751;23;20865;-68
2021/06/20 10:37:45;;;;;;;6.67;6.17;;;28.00;99.90;;;;;;6136119;23;20391;-68
2021/06/20 10:40:24;;;;;;;7.90;6.00;;;28.30;99.90;;;;;;6136349;23;20453;-68
2021/06/20 10:42:51;;;;;;;8.10;6.13;;;28.80;1.00;;;;;;6138169;23;20387;-68
2021/06/20 10:45:49;;;;;;;6.80;6.20;;;29.10;1.00;;;;;;6137828;23;20453;-68
2021/06/20 10:48:18;;;;;;;7.70;5.83;;;29.00;1.00;;;;;;6104824;23;20430;-68
2021/06/20 10:50:50;;;;;;;7.60;6.33;;;29.10;1.00;;;;;;6138131;23;20446;-68
2021/06/20 10:53:17;;;;;;;7.80;6.40;;;29.20;1.00;;;;;;6127021;23;20402;-68
2021/06/20 10:56:03;;;;;;;6.90;6.03;;;28.80;1.00;;;;;;6137896;23;20477;-68
2021/06/20 10:58:31;;;;;;;6.90;6.17;;;28.60;1.00;;;;;;6127405;23;20398;-68
2021/06/20 11:01:10;;;;;;;7.33;6.70;;;28.50;1.00;;;;;;6128355;23;20409;-69
2021/06/20 11:03:37;;;;;;;6.40;5.80;;;28.60;1.00;;;;;;6151421;23;20517;-68
2021/06/20 11:06:02;;;;;;;8.87;6.10;;;28.40;1.00;;;;;;6137714;23;20469;-68
2021/06/20 11:08:35;;;;;;;7.73;6.70;;;28.50;1.00;;;;;;6126410;23;20425;-67
2021/06/20 11:11:08;;;;;;;7.03;6.07;;;28.20;99.90;;;;;;6151194;23;20167;-68
2021/06/20 11:13:34;;;;;;;9.00;6.50;;;27.70;1.00;;;;;;6138207;23;20394;-68
2021/06/20 11:16:01;;;;;;;7.53;6.70;;;27.50;1.00;;;;;;6137729;23;20464;-68
2021/06/20 11:18:27;;;;;;;8.30;7.50;;;27.50;7.30;;;;;;6137154;23;20196;-68
2021/06/20 11:20:52;;;;;;;8.73;6.73;;;27.90;15.60;;;;;;6151536;23;20399;-71
2021/06/20 11:23:18;;;;;;;6.53;5.63;;;27.70;1.00;;;;;;6136863;23;20225;-69
2021/06/20 11:25:45;;;;;;;6.37;5.70;;;28.00;99.90;;;;;;6137353;23;20182;-70
2021/06/20 11:28:17;;;;;;;6.00;5.50;;;27.70;1.00;;;;;;6137302;23;20147;-69
2021/06/20 11:30:42;;;;;;;6.50;5.70;;;27.40;1.00;;;;;;6151199;23;20428;-69
2021/06/20 11:33:08;;;;;;;6.13;5.60;;;27.50;1.00;;;;;;6137410;23;20427;-69
2021/06/20 11:35:35;;;;;;;6.63;5.93;;;27.70;99.90;;;;;;6137084;23;20155;-69
2021/06/20 11:38:01;;;;;;;6.10;5.50;;;27.50;1.00;;;;;;6127969;23;20159;-69
2021/06/20 11:40:26;;;;;;;6.83;5.80;;;27.60;1.00;;;;;;6137548;23;20437;-69
2021/06/20 11:42:56;;;;;;;6.43;5.70;;;28.10;99.90;;;;;;6137492;23;20459;-70
2021/06/20 11:45:23;;;;;;;5.33;4.80;;;28.80;99.70;;;;;;6137426;23;20261;-65
2021/06/20 11:47:52;;;;;;;5.33;4.60;;;28.70;1.00;;;;;;6127760;23;20439;-70
2021/06/20 11:50:25;;;;;;;5.00;4.60;;;28.10;57.20;;;;;;6137016;23;20546;-69
2021/06/20 11:52:56;;;;;;;5.30;4.80;;;28.40;83.00;;;;;;6137065;23;20394;-69
2021/06/20 11:55:23;;;;;;;5.27;4.47;;;28.20;3.00;;;;;;6150988;23;20399;-72
2021/06/20 11:57:50;;;;;;;7.20;4.07;;;28.20;60.80;;;;;;6127244;23;20778;-69
2021/06/20 12:00:18;;;;;;;5.47;4.60;;;28.50;1.00;;;;;;6137192;23;20421;-69
2021/06/20 12:02:46;;;;;;;4.60;4.23;;;28.60;1.00;;;;;;6138655;23;20458;-70
2021/06/20 12:05:13;;;;;;;4.90;4.40;;;28.90;1.00;;;;;;6151360;23;20939;-70
2021/06/20 12:07:40;;;;;;;5.90;4.20;;;29.20;1.00;;;;;;6128367;23;20402;-69
2021/06/20 12:10:06;;;;;;;5.70;5.20;;;29.30;1.00;;;;;;6127633;23;20538;-69
2021/06/20 12:12:32;;;;;;;4.47;4.07;;;29.10;1.00;;;;;;6137309;23;20442;-71
2021/06/20 12:15:00;;;;;;;4.90;4.30;;;29.00;1.00;;;;;;6137678;23;20921;-70
2021/06/20 12:17:28;;;;;;;4.63;4.10;;;28.90;1.00;;;;;;6137105;23;20703;-70
2021/06/20 12:19:54;;;;;;;4.50;4.10;;;29.00;1.00;;;;;;6137353;23;20426;-70
2021/06/20 12:22:21;;;;;;;5.63;5.23;;;29.00;1.00;;;;;;6128247;23;20403;-70
2021/06/20 12:24:58;;;;;;;4.73;4.33;;;29.20;1.00;;;;;;6137213;23;20434;-69
2021/06/20 12:27:29;;;;;;;5.10;4.70;;;29.30;1.00;;;;;;6128414;23;20690;-69
2021/06/20 12:29:59;;;;;;;4.90;4.47;;;29.30;1.00;;;;;;6137897;23;20401;-70
2021/06/20 12:32:31;;;;;;;4.70;4.30;;;29.30;1.00;;;;;;6137321;23;20399;-71
2021/06/20 12:34:57;;;;;;;4.33;3.90;;;29.30;1.00;;;;;;6127805;23;20375;-69
2021/06/20 12:37:23;;;;;;;4.47;4.17;;;29.30;1.00;;;;;;6136918;23;20858;-72
2021/06/20 12:39:52;;;;;;;4.47;4.17;;;29.30;1.00;;;;;;6137639;23;20595;-66
2021/06/20 12:42:22;;;;;;;5.00;4.20;;;29.10;1.00;;;;;;6138039;23;20158;-73